Time;durP1;ratioP1;P1;durP2;ratioP2;P2;SDS_P1;SDS_P2;PMS_P1;PMS_P2;Temp;Humidity;BMP_temperature;BMP_pressure;BME280_temperature;BME280_humidity;BME280_pressure;Samples;Min_cycle;Max_cycle;Signal;HPM_P1;HPM_P2
2022/04/04 00:01:14;;;;;;;2.60;2.03;;;;;;;;;;5039422;28;20500;-76
2022/04/04 00:03:39;;;;;;;5.13;2.20;;;;;;;;;;5040918;28;20033;-76
2022/04/04 00:06:05;;;;;;;3.23;2.07;;;;;;;;;;5039111;28;20021;-76
2022/04/04 00:08:33;;;;;;;3.50;2.00;;;;;;;;;;5040258;28;20285;-76
2022/04/04 00:10:58;;;;;;;7.95;2.50;;;;;;;;;;5041645;28;20022;-75
2022/04/04 00:13:23;;;;;;;3.67;1.92;;;;;;;;;;5041554;28;20025;-75
2022/04/04 00:15:49;;;;;;;4.00;2.45;;;;;;;;;;5042080;28;20052;-76
2022/04/04 00:18:15;;;;;;;3.53;2.30;;;;;;;;;;5042217;28;20021;-76
2022/04/04 00:20:41;;;;;;;3.50;2.30;;;;;;;;;;5041370;28;20026;-75
2022/04/04 00:23:12;;;;;;;5.63;2.33;;;;;;;;;;5040494;28;20115;-75
2022/04/04 00:25:39;;;;;;;5.10;2.17;;;;;;;;;;5040058;28;20058;-76
2022/04/04 00:28:04;;;;;;;3.55;2.13;;;;;;;;;;5038430;28;20129;-74
2022/04/04 00:30:29;;;;;;;3.83;2.30;;;;;;;;;;5039028;28;20430;-76
2022/04/04 00:32:54;;;;;;;5.05;2.42;;;;;;;;;;5039093;28;20021;-76
2022/04/04 00:35:20;;;;;;;3.55;2.17;;;;;;;;;;5039195;28;20026;-76
2022/04/04 00:37:45;;;;;;;3.53;2.20;;;;;;;;;;5037321;28;20436;-76
2022/04/04 00:40:10;;;;;;;3.45;2.35;;;;;;;;;;5037490;28;20435;-76
2022/04/04 00:42:36;;;;;;;3.40;1.85;;;;;;;;;;5038221;28;20029;-75
2022/04/04 00:45:01;;;;;;;4.72;2.17;;;;;;;;;;5037517;28;20029;-76
2022/04/04 00:47:26;;;;;;;3.28;2.30;;;;;;;;;;5037842;28;20030;-76
2022/04/04 00:49:52;;;;;;;3.63;2.17;;;;;;;;;;5037781;28;20034;-75
2022/04/04 00:52:17;;;;;;;3.53;2.13;;;;;;;;;;5036253;28;20112;-76
2022/04/04 00:54:44;;;;;;;3.90;2.20;;;;;;;;;;5036457;28;20072;-76
2022/04/04 00:57:09;;;;;;;3.05;2.17;;;;;;;;;;5036909;28;20029;-76
2022/04/04 00:59:36;;;;;;;3.55;2.03;;;;;;;;;;5035451;28;20025;-76
2022/04/04 01:02:01;;;;;;;3.60;2.10;;;;;;;;;;5036317;28;20556;-77
2022/04/04 01:04:26;;;;;;;3.08;2.13;;;;;;;;;;5035028;28;20060;-75
2022/04/04 01:06:52;;;;;;;2.72;2.08;;;;;;;;;;5036565;28;20155;-76
2022/04/04 01:09:17;;;;;;;4.40;2.30;;;;;;;;;;5037003;28;20042;-77
2022/04/04 01:12:08;;;;;;;4.93;2.00;;;;;;;;;;5037453;28;20372;-75
2022/04/04 01:14:41;;;;;;;2.75;2.00;;;;;;;;;;5037312;28;20048;-76
2022/04/04 01:17:08;;;;;;;2.58;2.17;;;;;;;;;;5036774;28;20475;-76
2022/04/04 01:19:33;;;;;;;2.95;1.92;;;;;;;;;;5035421;28;20524;-75
2022/04/04 01:22:00;;;;;;;2.80;1.92;;;;;;;;;;5036501;28;20112;-76
2022/04/04 01:24:25;;;;;;;2.63;1.80;;;;;;;;;;5036616;28;20048;-76
2022/04/04 01:26:52;;;;;;;4.18;2.10;;;;;;;;;;5036581;28;20487;-76
2022/04/04 01:29:18;;;;;;;2.72;1.65;;;;;;;;;;5035850;28;20080;-76
2022/04/04 01:31:44;;;;;;;6.32;2.20;;;;;;;;;;5036566;28;20437;-75
2022/04/04 01:34:10;;;;;;;4.00;2.03;;;;;;;;;;5035881;28;20030;-76
2022/04/04 01:36:35;;;;;;;3.88;2.08;;;;;;;;;;5037527;28;20029;-77
2022/04/04 01:39:00;;;;;;;4.40;1.90;;;;;;;;;;5037068;28;20025;-75
2022/04/04 01:41:26;;;;;;;2.83;2.15;;;;;;;;;;5037653;28;20050;-76
2022/04/04 01:43:52;;;;;;;6.13;2.30;;;;;;;;;;5037362;28;20048;-75
2022/04/04 01:46:29;;;;;;;5.38;2.17;;;;;;;;;;5036953;28;20036;-76
2022/04/04 01:48:58;;;;;;;2.80;2.00;;;;;;;;;;5036757;28;20401;-75
2022/04/04 01:51:24;;;;;;;2.60;1.95;;;;;;;;;;5035862;28;20025;-75
2022/04/04 01:53:49;;;;;;;4.75;2.35;;;;;;;;;;5036818;28;20083;-75
2022/04/04 01:56:15;;;;;;;2.55;1.88;;;;;;;;;;5037180;28;20037;-75
2022/04/04 01:58:40;;;;;;;2.97;1.98;;;;;;;;;;5037332;28;20017;-76
2022/04/04 02:01:18;;;;;;;3.33;2.30;;;;;;;;;;5036800;28;20124;-76
2022/04/04 02:03:46;;;;;;;4.13;2.20;;;;;;;;;;5036667;28;20050;-75
2022/04/04 02:06:13;;;;;;;3.67;2.10;;;;;;;;;;5036241;28;20025;-75
2022/04/04 02:08:38;;;;;;;5.95;2.10;;;;;;;;;;5036194;28;20108;-75
2022/04/04 02:11:04;;;;;;;4.88;2.70;;;;;;;;;;5034709;28;20052;-75
2022/04/04 02:13:30;;;;;;;4.65;2.25;;;;;;;;;;5035266;28;20025;-75
2022/04/04 02:15:58;;;;;;;4.93;2.25;;;;;;;;;;5034465;28;20497;-75
2022/04/04 02:18:24;;;;;;;3.78;2.38;;;;;;;;;;5036083;28;20021;-75
2022/04/04 02:20:50;;;;;;;4.25;2.30;;;;;;;;;;5036149;28;20108;-76
2022/04/04 02:23:20;;;;;;;3.65;2.50;;;;;;;;;;5036165;28;20049;-76
2022/04/04 02:25:46;;;;;;;3.20;2.28;;;;;;;;;;5035437;28;20035;-75
2022/04/04 02:28:13;;;;;;;2.88;2.05;;;;;;;;;;5035998;28;20037;-76
2022/04/04 02:30:39;;;;;;;5.40;2.25;;;;;;;;;;5036049;28;20052;-75
2022/04/04 02:33:04;;;;;;;3.28;2.50;;;;;;;;;;5037748;28;20030;-76
2022/04/04 02:35:30;;;;;;;2.80;2.15;;;;;;;;;;5038044;28;20112;-75
2022/04/04 02:37:55;;;;;;;3.55;1.90;;;;;;;;;;5037784;28;20028;-75
2022/04/04 02:40:21;;;;;;;4.25;2.10;;;;;;;;;;5037863;28;20108;-75
2022/04/04 02:42:47;;;;;;;2.53;1.98;;;;;;;;;;5037862;28;20032;-75
2022/04/04 02:45:12;;;;;;;3.92;2.15;;;;;;;;;;5038361;28;20025;-76
2022/04/04 02:47:38;;;;;;;3.00;2.05;;;;;;;;;;5038661;28;20021;-76
2022/04/04 02:50:04;;;;;;;3.70;2.50;;;;;;;;;;5036096;28;20037;-76
2022/04/04 02:52:29;;;;;;;3.97;2.28;;;;;;;;;;5037275;28;20033;-75
2022/04/04 02:54:54;;;;;;;2.60;2.20;;;;;;;;;;5038024;28;20033;-75
2022/04/04 02:57:19;;;;;;;3.78;2.53;;;;;;;;;;5038535;28;20033;-76
2022/04/04 02:59:45;;;;;;;7.25;2.22;;;;;;;;;;5038627;28;20026;-74
2022/04/04 03:02:11;;;;;;;2.97;2.10;;;;;;;;;;5036258;28;20500;-76
2022/04/04 03:04:39;;;;;;;3.33;2.13;;;;;;;;;;5036689;28;20029;-76
2022/04/04 03:07:05;;;;;;;3.17;2.20;;;;;;;;;;5036307;28;20032;-75
2022/04/04 03:09:30;;;;;;;3.67;2.38;;;;;;;;;;5036807;28;20029;-77
2022/04/04 03:11:55;;;;;;;2.83;2.20;;;;;;;;;;5037730;28;20366;-76
2022/04/04 03:14:21;;;;;;;2.92;2.05;;;;;;;;;;5037825;28;20120;-76
2022/04/04 03:16:46;;;;;;;2.60;1.98;;;;;;;;;;5035297;28;20024;-77
2022/04/04 03:19:11;;;;;;;2.75;1.75;;;;;;;;;;5037103;28;20021;-76
2022/04/04 03:21:37;;;;;;;3.35;2.40;;;;;;;;;;5037216;28;20060;-77
2022/04/04 03:24:02;;;;;;;4.35;2.53;;;;;;;;;;5034817;28;20029;-76
2022/04/04 03:26:31;;;;;;;3.90;2.28;;;;;;;;;;5033882;28;20022;-75
2022/04/04 03:28:56;;;;;;;4.82;2.10;;;;;;;;;;5035050;28;20022;-76
2022/04/04 03:31:22;;;;;;;3.47;2.40;;;;;;;;;;5036200;28;20424;-76
2022/04/04 03:33:47;;;;;;;6.10;2.03;;;;;;;;;;5037014;28;20496;-75
2022/04/04 03:36:12;;;;;;;2.20;1.90;;;;;;;;;;5039922;28;20033;-75
2022/04/04 03:38:37;;;;;;;2.97;2.20;;;;;;;;;;5041097;28;20042;-76
2022/04/04 03:41:03;;;;;;;3.65;2.25;;;;;;;;;;5040301;28;20021;-75
2022/04/04 03:43:28;;;;;;;3.78;2.10;;;;;;;;;;5039768;28;20056;-75
2022/04/04 03:45:53;;;;;;;5.13;2.60;;;;;;;;;;5041386;28;20030;-76
2022/04/04 03:48:19;;;;;;;5.20;2.10;;;;;;;;;;5042040;28;20030;-74
2022/04/04 03:50:45;;;;;;;2.72;2.15;;;;;;;;;;5041941;28;20021;-75
2022/04/04 03:53:11;;;;;;;4.47;2.40;;;;;;;;;;5042628;28;20036;-75
2022/04/04 03:55:38;;;;;;;4.95;2.33;;;;;;;;;;5041558;28;20029;-77
2022/04/04 03:58:04;;;;;;;2.83;2.30;;;;;;;;;;5042261;28;20029;-75
2022/04/04 04:00:30;;;;;;;3.05;2.22;;;;;;;;;;5041299;28;20021;-74
2022/04/04 04:02:56;;;;;;;3.17;2.30;;;;;;;;;;5041791;28;20076;-75
2022/04/04 04:05:21;;;;;;;5.80;3.90;;;;;;;;;;5042078;28;20478;-75
2022/04/04 04:07:47;;;;;;;3.75;2.50;;;;;;;;;;5042092;28;20025;-76
2022/04/04 04:10:12;;;;;;;4.97;2.70;;;;;;;;;;5042464;28;20033;-76
2022/04/04 04:12:39;;;;;;;4.93;2.25;;;;;;;;;;5044009;28;20029;-76
2022/04/04 04:15:06;;;;;;;3.30;2.35;;;;;;;;;;5043143;28;20108;-76
2022/04/04 04:17:31;;;;;;;4.28;2.70;;;;;;;;;;5042975;28;20033;-76
2022/04/04 04:22:41;;;;;;;2.85;2.13;;;;;;;;;;5043357;28;20048;-75
2022/04/04 04:25:07;;;;;;;4.05;2.60;;;;;;;;;;5042128;28;20029;-75
2022/04/04 04:27:33;;;;;;;4.43;2.47;;;;;;;;;;5043518;28;20022;-75
2022/04/04 04:29:59;;;;;;;3.53;2.50;;;;;;;;;;5043494;28;20044;-75
2022/04/04 04:32:24;;;;;;;4.45;2.47;;;;;;;;;;5042821;28;20609;-75
2022/04/04 04:34:50;;;;;;;5.20;2.33;;;;;;;;;;5040507;28;20049;-76
2022/04/04 04:37:21;;;;;;;4.68;2.75;;;;;;;;;;5040930;28;20031;-75
2022/04/04 04:39:47;;;;;;;3.42;2.25;;;;;;;;;;5041900;28;20135;-75
2022/04/04 04:42:12;;;;;;;4.30;2.80;;;;;;;;;;5041015;28;20072;-75
2022/04/04 04:44:38;;;;;;;5.53;2.78;;;;;;;;;;5036077;28;20036;-75
2022/04/04 04:47:04;;;;;;;3.55;2.60;;;;;;;;;;5037771;28;20060;-75
2022/04/04 04:49:30;;;;;;;4.07;2.58;;;;;;;;;;5038083;28;20048;-75
2022/04/04 04:51:55;;;;;;;5.13;2.50;;;;;;;;;;5037667;28;20021;-76
2022/04/04 04:54:21;;;;;;;5.40;2.97;;;;;;;;;;5036141;28;20078;-75
2022/04/04 04:56:46;;;;;;;3.80;2.80;;;;;;;;;;5035902;28;20028;-75
2022/04/04 04:59:13;;;;;;;7.43;2.53;;;;;;;;;;5037478;28;20025;-75
2022/04/04 05:01:39;;;;;;;4.05;2.70;;;;;;;;;;5037049;28;20028;-76
2022/04/04 05:04:04;;;;;;;5.93;2.75;;;;;;;;;;5037592;28;20117;-75
2022/04/04 05:06:30;;;;;;;3.47;2.55;;;;;;;;;;5035772;28;20401;-76
2022/04/04 05:08:57;;;;;;;3.83;2.90;;;;;;;;;;5037223;28;20087;-76
2022/04/04 05:11:23;;;;;;;7.15;2.97;;;;;;;;;;5037671;28;20022;-76
2022/04/04 05:13:48;;;;;;;3.40;2.55;;;;;;;;;;5035587;28;20037;-76
2022/04/04 05:16:14;;;;;;;5.25;3.05;;;;;;;;;;5036539;28;20021;-75
2022/04/04 05:18:42;;;;;;;7.22;3.17;;;;;;;;;;5035234;28;20017;-77
2022/04/04 05:21:08;;;;;;;7.32;2.95;;;;;;;;;;5035187;28;20052;-76
2022/04/04 05:23:34;;;;;;;5.90;3.08;;;;;;;;;;5036742;28;20025;-76
2022/04/04 05:25:59;;;;;;;4.03;2.92;;;;;;;;;;5036209;28;20382;-76
2022/04/04 05:28:24;;;;;;;5.40;3.10;;;;;;;;;;5035660;28;20025;-77
2022/04/04 05:30:49;;;;;;;5.13;3.15;;;;;;;;;;5033672;28;20037;-76
2022/04/04 05:33:15;;;;;;;3.80;2.90;;;;;;;;;;5033926;28;20026;-77
2022/04/04 05:35:41;;;;;;;5.03;3.00;;;;;;;;;;5035381;28;20123;-75
2022/04/04 05:38:06;;;;;;;6.70;3.20;;;;;;;;;;5037729;28;20032;-77
2022/04/04 05:40:31;;;;;;;7.10;3.30;;;;;;;;;;5037569;28;20021;-77
2022/04/04 05:42:56;;;;;;;7.05;3.63;;;;;;;;;;5036718;28;20505;-76
2022/04/04 05:45:22;;;;;;;4.57;3.33;;;;;;;;;;5036013;28;20033;-76
2022/04/04 05:47:47;;;;;;;6.03;3.65;;;;;;;;;;5034900;28;20045;-76
2022/04/04 05:50:13;;;;;;;6.28;3.50;;;;;;;;;;5034578;28;20021;-76
2022/04/04 05:52:38;;;;;;;6.60;3.65;;;;;;;;;;5035860;28;20040;-77
2022/04/04 05:55:05;;;;;;;4.75;3.22;;;;;;;;;;5034624;28;20018;-76
2022/04/04 05:57:34;;;;;;;5.07;3.13;;;;;;;;;;5035488;28;20108;-76
2022/04/04 05:59:59;;;;;;;10.55;3.50;;;;;;;;;;5036133;28;20096;-77
2022/04/04 06:02:26;;;;;;;4.80;3.53;;;;;;;;;;5035799;28;20086;-77
2022/04/04 06:04:51;;;;;;;4.15;3.10;;;;;;;;;;5035485;28;20379;-75
2022/04/04 06:07:18;;;;;;;5.10;3.60;;;;;;;;;;5034149;28;20079;-76
2022/04/04 06:09:43;;;;;;;7.43;3.58;;;;;;;;;;5034968;28;20075;-76
2022/04/04 06:12:09;;;;;;;7.10;3.83;;;;;;;;;;5035451;28;20022;-76
2022/04/04 06:14:34;;;;;;;6.45;3.95;;;;;;;;;;5035425;28;20025;-76
2022/04/04 06:17:00;;;;;;;8.35;3.83;;;;;;;;;;5034128;28;20025;-75
2022/04/04 06:19:27;;;;;;;4.82;3.63;;;;;;;;;;5036439;28;20030;-76
2022/04/04 06:21:53;;;;;;;6.85;3.75;;;;;;;;;;5036650;28;20026;-76
2022/04/04 06:24:18;;;;;;;5.50;3.58;;;;;;;;;;5035893;28;20078;-76
2022/04/04 06:26:43;;;;;;;4.85;3.50;;;;;;;;;;5036086;28;20080;-75
2022/04/04 06:29:09;;;;;;;5.30;3.47;;;;;;;;;;5036045;28;20036;-76
2022/04/04 06:31:38;;;;;;;6.63;3.78;;;;;;;;;;5037071;28;20057;-76
2022/04/04 06:34:08;;;;;;;6.28;3.88;;;;;;;;;;5036337;28;20076;-76
2022/04/04 06:36:33;;;;;;;4.50;3.60;;;;;;;;;;5036209;28;20018;-76
2022/04/04 06:38:59;;;;;;;6.15;4.47;;;;;;;;;;5035924;28;20052;-76
2022/04/04 06:41:24;;;;;;;8.63;4.05;;;;;;;;;;5035008;28;20028;-76
2022/04/04 06:43:50;;;;;;;7.82;4.32;;;;;;;;;;5035807;28;20079;-76
2022/04/04 06:46:16;;;;;;;6.38;4.25;;;;;;;;;;5035508;28;20063;-76
2022/04/04 06:48:42;;;;;;;6.05;4.18;;;;;;;;;;5035745;28;20025;-76
2022/04/04 06:51:09;;;;;;;6.35;3.97;;;;;;;;;;5034435;28;20022;-76
2022/04/04 06:53:34;;;;;;;6.47;4.32;;;;;;;;;;5035561;28;20056;-76
2022/04/04 06:55:59;;;;;;;6.82;4.40;;;;;;;;;;5034752;28;20029;-76
2022/04/04 06:58:26;;;;;;;6.57;4.57;;;;;;;;;;5034928;28;20026;-75
2022/04/04 07:00:52;;;;;;;6.13;4.55;;;;;;;;;;5035085;28;20263;-75
2022/04/04 07:03:17;;;;;;;17.08;7.65;;;;;;;;;;5034527;28;20100;-75
2022/04/04 07:05:42;;;;;;;8.88;5.15;;;;;;;;;;5035312;28;20527;-76
2022/04/04 07:08:08;;;;;;;6.85;4.43;;;;;;;;;;5033459;28;20025;-75
2022/04/04 07:10:33;;;;;;;5.63;4.18;;;;;;;;;;5035226;28;20033;-76
2022/04/04 07:12:59;;;;;;;8.13;4.18;;;;;;;;;;5034971;28;20101;-75
2022/04/04 07:15:24;;;;;;;6.45;4.13;;;;;;;;;;5035961;28;20025;-75
2022/04/04 07:17:50;;;;;;;6.03;3.90;;;;;;;;;;5035509;28;20041;-77
2022/04/04 07:20:15;;;;;;;7.15;3.92;;;;;;;;;;5035109;28;20397;-76
2022/04/04 07:22:42;;;;;;;6.38;3.55;;;;;;;;;;5035121;28;20095;-76
2022/04/04 07:25:09;;;;;;;4.80;3.35;;;;;;;;;;5033927;28;20032;-77
2022/04/04 07:27:36;;;;;;;4.40;2.78;;;;;;;;;;5034852;28;20040;-76
2022/04/04 07:30:01;;;;;;;3.78;2.90;;;;;;;;;;5034888;28;20108;-76
2022/04/04 07:32:26;;;;;;;4.13;2.85;;;;;;;;;;5034004;28;20053;-75
2022/04/04 07:34:52;;;;;;;3.60;2.60;;;;;;;;;;5034342;28;20025;-76
2022/04/04 07:37:17;;;;;;;4.25;2.90;;;;;;;;;;5037036;28;20029;-76
2022/04/04 07:39:42;;;;;;;4.05;2.80;;;;;;;;;;5035932;28;20032;-76
2022/04/04 07:42:08;;;;;;;3.97;2.40;;;;;;;;;;5035741;28;20041;-76
2022/04/04 07:44:34;;;;;;;7.55;2.85;;;;;;;;;;5035169;28;20385;-76
2022/04/04 07:47:00;;;;;;;3.47;2.80;;;;;;;;;;5033592;28;20029;-76
2022/04/04 07:49:25;;;;;;;5.00;2.80;;;;;;;;;;5034898;28;20033;-75
2022/04/04 07:51:50;;;;;;;4.78;2.70;;;;;;;;;;5033860;28;20466;-74
2022/04/04 07:54:15;;;;;;;4.47;2.88;;;;;;;;;;5033855;28;20386;-74
2022/04/04 07:56:42;;;;;;;3.22;2.33;;;;;;;;;;5032464;28;20064;-78
2022/04/04 07:59:07;;;;;;;4.75;3.13;;;;;;;;;;5034016;28;20036;-77
2022/04/04 08:01:32;;;;;;;4.20;3.00;;;;;;;;;;5034262;28;20051;-76
2022/04/04 08:03:57;;;;;;;4.15;2.80;;;;;;;;;;5034732;28;20033;-77
2022/04/04 08:06:23;;;;;;;4.40;2.65;;;;;;;;;;5034349;28;20017;-76
2022/04/04 08:08:48;;;;;;;5.80;2.83;;;;;;;;;;5034323;28;20022;-76
2022/04/04 08:11:13;;;;;;;6.87;2.93;;;;;;;;;;5034343;28;20394;-76
2022/04/04 08:13:43;;;;;;;4.27;3.30;;;;;;;;;;5034768;28;20592;-77
2022/04/04 08:16:09;;;;;;;3.47;2.70;;;;;;;;;;5033556;28;20254;-77
2022/04/04 08:18:34;;;;;;;6.68;3.25;;;;;;;;;;5035308;28;20033;-76
2022/04/04 08:20:59;;;;;;;8.57;3.10;;;;;;;;;;5038582;28;20493;-75
2022/04/04 08:23:29;;;;;;;7.68;3.15;;;;;;;;;;5038654;28;20025;-76
2022/04/04 08:25:55;;;;;;;4.85;3.30;;;;;;;;;;5037884;28;20155;-76
2022/04/04 08:28:20;;;;;;;4.47;3.03;;;;;;;;;;5037726;28;20068;-77
2022/04/04 08:30:47;;;;;;;4.97;2.53;;;;;;;;;;5039180;28;20033;-76
2022/04/04 08:33:12;;;;;;;4.90;3.25;;;;;;;;;;5038125;28;20272;-77
2022/04/04 08:35:37;;;;;;;8.55;3.50;;;;;;;;;;5038662;28;20104;-76
2022/04/04 08:38:03;;;;;;;5.18;3.40;;;;;;;;;;5038285;28;20018;-77
2022/04/04 08:40:28;;;;;;;5.47;2.92;;;;;;;;;;5037948;28;20037;-76
2022/04/04 08:42:54;;;;;;;3.45;2.72;;;;;;;;;;5038144;28;20037;-76
2022/04/04 08:45:19;;;;;;;4.55;3.03;;;;;;;;;;5038073;28;20493;-76
2022/04/04 08:47:46;;;;;;;6.28;3.20;;;;;;;;;;5038486;28;20026;-77
2022/04/04 08:50:11;;;;;;;3.72;3.08;;;;;;;;;;5038846;28;20546;-76
2022/04/04 08:52:37;;;;;;;4.65;3.05;;;;;;;;;;5038591;28;20104;-77
2022/04/04 08:55:03;;;;;;;5.18;3.20;;;;;;;;;;5039404;28;20025;-77
2022/04/04 08:57:28;;;;;;;4.13;3.13;;;;;;;;;;5039449;28;20115;-75
2022/04/04 08:59:53;;;;;;;4.35;3.13;;;;;;;;;;5040082;28;20028;-76
2022/04/04 09:02:18;;;;;;;3.75;2.85;;;;;;;;;;5039908;28;20032;-76
2022/04/04 09:04:50;;;;;;;2.95;2.55;;;;;;;;;;5039436;28;20060;-75
2022/04/04 09:07:16;;;;;;;6.00;3.25;;;;;;;;;;5039099;28;20048;-77
2022/04/04 09:09:44;;;;;;;4.18;3.08;;;;;;;;;;5040335;28;20105;-76
2022/04/04 09:12:13;;;;;;;3.63;3.00;;;;;;;;;;5040808;28;20075;-75
2022/04/04 09:14:44;;;;;;;4.85;2.90;;;;;;;;;;5038455;28;20125;-76
2022/04/04 09:17:11;;;;;;;3.78;2.67;;;;;;;;;;5040184;28;20030;-76
2022/04/04 09:19:37;;;;;;;4.80;3.00;;;;;;;;;;5041393;28;20025;-76
2022/04/04 09:22:05;;;;;;;4.88;2.97;;;;;;;;;;5042053;28;20559;-75
2022/04/04 09:24:43;;;;;;;3.90;2.67;;;;;;;;;;5039861;28;20099;-76
2022/04/04 09:27:11;;;;;;;7.25;3.17;;;;;;;;;;5036965;28;20018;-75
2022/04/04 09:29:40;;;;;;;3.25;2.67;;;;;;;;;;5034887;28;20045;-76
2022/04/04 09:32:05;;;;;;;3.08;2.45;;;;;;;;;;5033287;28;20025;-76
2022/04/04 09:34:49;;;;;;;5.65;2.97;;;;;;;;;;5033803;28;20029;-75
2022/04/04 09:37:15;;;;;;;;;;;;;;;;;;5034275;28;20022;-76
2022/04/04 09:39:40;;;;;;;3.17;2.47;;;;;;;;;;5033976;28;19909;-76
2022/04/04 09:42:17;;;;;;;5.45;2.70;;;;;;;;;;5034969;28;20064;-76
2022/04/04 09:45:01;;;;;;;4.32;2.60;;;;;;;;;;5035085;28;20502;-77
2022/04/04 09:47:48;;;;;;;;;;;;;;;;;;5035204;28;20401;-77
2022/04/04 09:50:36;;;;;;;4.28;2.42;;;;;;;;;;5034944;28;19952;-77
2022/04/04 09:53:03;;;;;;;4.05;3.10;;;;;;;;;;5035306;28;20055;-76
2022/04/04 09:55:30;;;;;;;5.28;2.90;;;;;;;;;;5035039;28;20036;-77
2022/04/04 09:57:58;;;;;;;3.60;2.53;;;;;;;;;;5035958;28;20032;-75
2022/04/04 10:00:24;;;;;;;3.85;1.98;;;;;;;;;;5035850;28;20080;-76
2022/04/04 10:02:53;;;;;;;6.85;2.08;;;;;;;;;;5035995;28;20406;-75
2022/04/04 10:05:19;;;;;;;3.92;2.53;;;;;;;;;;5034689;28;20025;-76
2022/04/04 10:07:46;;;;;;;11.90;2.72;;;;;;;;;;5036073;28;20108;-76
2022/04/04 10:10:11;;;;;;;3.58;2.45;;;;;;;;;;5038334;28;20033;-75
2022/04/04 10:12:37;;;;;;;3.28;2.35;;;;;;;;;;5037069;28;20074;-76
2022/04/04 10:15:05;;;;;;;3.40;2.60;;;;;;;;;;5036732;28;20032;-76
2022/04/04 10:17:31;;;;;;;4.93;2.58;;;;;;;;;;5036620;28;20028;-77
2022/04/04 10:19:57;;;;;;;3.40;2.40;;;;;;;;;;5036433;28;20021;-76
2022/04/04 10:22:23;;;;;;;3.53;2.78;;;;;;;;;;5034410;28;20029;-77
2022/04/04 10:24:50;;;;;;;3.50;2.35;;;;;;;;;;5034457;28;20465;-75
2022/04/04 10:27:20;;;;;;;8.07;3.05;;;;;;;;;;5034129;28;20075;-76
2022/04/04 10:29:47;;;;;;;5.43;2.95;;;;;;;;;;5034668;28;20029;-76
2022/04/04 10:32:23;;;;;;;4.07;2.67;;;;;;;;;;5034051;28;20049;-76
2022/04/04 10:34:49;;;;;;;3.33;2.50;;;;;;;;;;5032792;28;20044;-77
2022/04/04 10:37:14;;;;;;;2.58;1.98;;;;;;;;;;5033647;28;20410;-76
2022/04/04 10:39:44;;;;;;;3.78;2.47;;;;;;;;;;5034173;28;20032;-77
2022/04/04 10:42:26;;;;;;;3.83;2.60;;;;;;;;;;5033535;28;20053;-76
2022/04/04 10:45:06;;;;;;;11.27;2.90;;;;;;;;;;5034641;28;20064;-76
2022/04/04 10:47:33;;;;;;;4.20;2.45;;;;;;;;;;5033978;28;20561;-76
2022/04/04 10:50:17;;;;;;;5.43;2.55;;;;;;;;;;5034024;28;20048;-76
2022/04/04 10:52:43;;;;;;;7.40;2.38;;;;;;;;;;5034355;28;20025;-76
2022/04/04 10:55:27;;;;;;;3.88;2.35;;;;;;;;;;5032820;28;20486;-76
2022/04/04 10:58:14;;;;;;;3.95;2.22;;;;;;;;;;5033899;28;20028;-76
2022/04/04 11:01:00;;;;;;;4.20;1.98;;;;;;;;;;5033838;28;20363;-77
2022/04/04 11:03:32;;;;;;;3.78;2.10;;;;;;;;;;5034745;28;20045;-76
2022/04/04 11:09:18;;;;;;;5.85;2.22;;;;;;;;;;5033999;28;20551;-76
2022/04/04 11:11:54;;;;;;;5.78;2.47;;;;;;;;;;5033178;28;20034;-78
2022/04/04 11:14:34;;;;;;;2.90;2.22;;;;;;;;;;5034373;28;20025;-77
2022/04/04 11:17:05;;;;;;;2.90;2.50;;;;;;;;;;5033642;28;20026;-77
2022/04/04 11:19:47;;;;;;;3.53;2.40;;;;;;;;;;5034352;28;20155;-77
2022/04/04 11:22:17;;;;;;;3.10;2.28;;;;;;;;;;5033971;28;20025;-77
2022/04/04 11:24:44;;;;;;;3.38;2.60;;;;;;;;;;5032121;28;20032;-77
2022/04/04 11:27:10;;;;;;;3.15;2.58;;;;;;;;;;5032520;28;20025;-76
2022/04/04 11:29:38;;;;;;;2.95;2.40;;;;;;;;;;5035591;28;20100;-76
2022/04/04 11:32:04;;;;;;;3.78;2.35;;;;;;;;;;5034460;28;20498;-76
2022/04/04 11:34:31;;;;;;;4.00;2.85;;;;;;;;;;5034241;28;20036;-76
2022/04/04 11:36:57;;;;;;;5.30;2.95;;;;;;;;;;5032807;28;20434;-76
2022/04/04 11:39:23;;;;;;;5.80;2.50;;;;;;;;;;5033773;28;20043;-77
2022/04/04 11:41:53;;;;;;;3.92;2.58;;;;;;;;;;5033884;28;20075;-77
2022/04/04 11:44:24;;;;;;;4.45;2.85;;;;;;;;;;5033972;28;20071;-77
2022/04/04 11:47:11;;;;;;;3.08;2.58;;;;;;;;;;5032254;28;20029;-76
2022/04/04 11:49:42;;;;;;;5.03;2.78;;;;;;;;;;5033687;28;20029;-77
2022/04/04 11:52:09;;;;;;;3.22;2.70;;;;;;;;;;5033739;28;20060;-77
2022/04/04 11:54:42;;;;;;;5.25;3.38;;;;;;;;;;5035647;28;20032;-76
2022/04/04 11:57:08;;;;;;;3.95;2.90;;;;;;;;;;5037667;28;20394;-77
2022/04/04 11:59:35;;;;;;;4.05;2.85;;;;;;;;;;5037240;28;20026;-76
2022/04/04 12:02:03;;;;;;;3.45;1.90;;;;;;;;;;5037686;28;20037;-76
2022/04/04 12:04:29;;;;;;;3.92;2.95;;;;;;;;;;5037923;28;20030;-76
2022/04/04 12:06:55;;;;;;;3.72;2.88;;;;;;;;;;5036242;28;20032;-77
2022/04/04 12:09:30;;;;;;;4.15;2.65;;;;;;;;;;5037157;28;20025;-77
2022/04/04 12:12:08;;;;;;;4.00;2.88;;;;;;;;;;5035917;28;20029;-77
2022/04/04 12:14:36;;;;;;;4.80;2.92;;;;;;;;;;5037720;28;20033;-75
2022/04/04 12:17:01;;;;;;;4.60;2.75;;;;;;;;;;5035869;28;20018;-76
2022/04/04 12:19:27;;;;;;;6.40;3.38;;;;;;;;;;5036899;28;20091;-76
2022/04/04 12:21:53;;;;;;;4.50;2.70;;;;;;;;;;5035687;28;20437;-76
2022/04/04 12:27:23;;;;;;;6.05;3.15;;;;;;;;;;5037137;28;20445;-75
2022/04/04 12:29:49;;;;;;;4.15;2.85;;;;;;;;;;5036644;28;20049;-76
2022/04/04 12:32:19;;;;;;;5.13;3.15;;;;;;;;;;5036775;28;20386;-77
2022/04/04 12:35:01;;;;;;;4.00;2.72;;;;;;;;;;5036549;28;20027;-76
2022/04/04 12:37:36;;;;;;;4.45;3.05;;;;;;;;;;5036553;28;20540;-75
2022/04/04 12:40:21;;;;;;;5.97;3.70;;;;;;;;;;5037099;28;20025;-76
2022/04/04 12:42:49;;;;;;;6.13;3.10;;;;;;;;;;5035386;28;20026;-76
2022/04/04 12:45:17;;;;;;;4.85;3.00;;;;;;;;;;5036561;28;20021;-77
2022/04/04 12:48:10;;;;;;;3.30;2.70;;;;;;;;;;5036286;28;20209;-77
2022/04/04 12:50:50;;;;;;;5.97;3.05;;;;;;;;;;5036463;28;20490;-77
2022/04/04 12:53:18;;;;;;;5.88;3.40;;;;;;;;;;5036492;28;20106;-76
2022/04/04 12:56:02;;;;;;;5.25;3.15;;;;;;;;;;5036224;28;20484;-75
2022/04/04 12:58:27;;;;;;;4.85;3.50;;;;;;;;;;5036566;28;20467;-77
2022/04/04 13:00:52;;;;;;;5.43;3.15;;;;;;;;;;5036622;28;20033;-77
2022/04/04 13:03:19;;;;;;;4.78;3.03;;;;;;;;;;5034868;28;20124;-77
2022/04/04 13:05:49;;;;;;;4.18;3.22;;;;;;;;;;5037551;28;20026;-76
2022/04/04 13:08:20;;;;;;;3.33;2.45;;;;;;;;;;5036676;28;20437;-76
2022/04/04 13:11:11;;;;;;;4.53;3.15;;;;;;;;;;5036312;28;20021;-76
2022/04/04 13:14:05;;;;;;;4.30;3.20;;;;;;;;;;5036365;28;20053;-76
2022/04/04 13:16:44;;;;;;;4.70;2.90;;;;;;;;;;5036212;28;20429;-76
2022/04/04 13:19:12;;;;;;;3.45;2.92;;;;;;;;;;5036755;28;20383;-76
2022/04/04 13:21:42;;;;;;;4.68;2.53;;;;;;;;;;5035549;28;20421;-76
2022/04/04 13:24:08;;;;;;;5.07;2.80;;;;;;;;;;5034934;28;20395;-76
2022/04/04 13:26:35;;;;;;;4.15;3.00;;;;;;;;;;5036190;28;20478;-76
2022/04/04 13:29:01;;;;;;;3.20;2.58;;;;;;;;;;5034826;28;20406;-76
2022/04/04 13:31:29;;;;;;;4.20;2.85;;;;;;;;;;5033729;28;20021;-76
2022/04/04 13:33:56;;;;;;;4.15;2.65;;;;;;;;;;5035186;28;20029;-78
2022/04/04 13:36:22;;;;;;;5.18;3.20;;;;;;;;;;5036067;28;20028;-76
2022/04/04 13:38:48;;;;;;;5.07;3.17;;;;;;;;;;5040146;28;20081;-76
2022/04/04 13:41:15;;;;;;;5.60;3.00;;;;;;;;;;5037400;28;20060;-76
2022/04/04 13:43:41;;;;;;;4.50;3.35;;;;;;;;;;5035741;28;20044;-76
2022/04/04 13:46:07;;;;;;;4.70;3.20;;;;;;;;;;5035820;28;20478;-76
2022/04/04 13:48:32;;;;;;;3.33;2.80;;;;;;;;;;5034668;28;20140;-76
2022/04/04 13:50:58;;;;;;;3.97;3.00;;;;;;;;;;5035331;28;20037;-75
2022/04/04 13:53:23;;;;;;;6.03;3.20;;;;;;;;;;5035282;28;20029;-77
2022/04/04 13:55:48;;;;;;;4.55;2.78;;;;;;;;;;5035628;28;20255;-76
2022/04/04 13:58:14;;;;;;;4.38;3.20;;;;;;;;;;5034846;28;20057;-76
2022/04/04 14:00:39;;;;;;;6.28;3.15;;;;;;;;;;5035069;28;20052;-77
2022/04/04 14:03:05;;;;;;;3.63;2.67;;;;;;;;;;5035529;28;20021;-76
2022/04/04 14:05:30;;;;;;;4.72;3.13;;;;;;;;;;5035080;28;20120;-76
2022/04/04 14:07:56;;;;;;;3.80;3.00;;;;;;;;;;5034475;28;20033;-76
2022/04/04 14:10:22;;;;;;;14.07;2.92;;;;;;;;;;5034815;28;20250;-76
2022/04/04 14:12:48;;;;;;;5.85;3.15;;;;;;;;;;5035579;28;20021;-75
2022/04/04 14:15:13;;;;;;;7.35;3.33;;;;;;;;;;5035527;28;20434;-75
2022/04/04 14:17:39;;;;;;;4.50;3.17;;;;;;;;;;5034849;28;20029;-77
2022/04/04 14:20:06;;;;;;;4.35;3.10;;;;;;;;;;5037056;28;20281;-77
2022/04/04 14:22:32;;;;;;;5.95;2.50;;;;;;;;;;5035709;28;20083;-78
2022/04/04 14:24:58;;;;;;;2.58;2.22;;;;;;;;;;5034953;28;20074;-76
2022/04/04 14:27:25;;;;;;;4.75;2.63;;;;;;;;;;5033725;28;20087;-77
2022/04/04 14:29:50;;;;;;;3.88;2.80;;;;;;;;;;5035579;28;20030;-76
2022/04/04 14:32:15;;;;;;;3.40;2.65;;;;;;;;;;5034178;28;20079;-77
2022/04/04 14:34:41;;;;;;;5.80;2.90;;;;;;;;;;5035700;28;20129;-77
2022/04/04 14:37:07;;;;;;;2.80;2.33;;;;;;;;;;5036088;28;20025;-76
2022/04/04 14:39:33;;;;;;;2.65;1.83;;;;;;;;;;5035305;28;20033;-76
2022/04/04 14:41:58;;;;;;;4.50;2.70;;;;;;;;;;5035921;28;20051;-75
2022/04/04 14:44:24;;;;;;;2.88;2.25;;;;;;;;;;5035794;28;20029;-76
2022/04/04 14:46:49;;;;;;;4.60;2.50;;;;;;;;;;5035275;28;20025;-76
2022/04/04 14:49:15;;;;;;;3.83;2.72;;;;;;;;;;5035313;28;20474;-77
2022/04/04 14:51:40;;;;;;;3.25;2.35;;;;;;;;;;5035606;28;20025;-76
2022/04/04 14:54:05;;;;;;;2.90;2.15;;;;;;;;;;5035456;28;20048;-76